sensor_id;sensor_type;location;lat;lon;timestamp;P1;durP1;ratioP1;P2;durP2;ratioP2
5014;SDS011;2526;51.060;4.228;2023-06-10T00:00:09;5.47;;;3.08;;
5014;SDS011;2526;51.060;4.228;2023-06-10T00:02:37;4.78;;;3.08;;
5014;SDS011;2526;51.060;4.228;2023-06-10T00:05:03;4.63;;;3.10;;
5014;SDS011;2526;51.060;4.228;2023-06-10T00:07:28;6.32;;;3.50;;
5014;SDS011;2526;51.060;4.228;2023-06-10T00:09:54;8.43;;;4.07;;
5014;SDS011;2526;51.060;4.228;2023-06-10T00:12:20;4.50;;;2.75;;
5014;SDS011;2526;51.060;4.228;2023-06-10T00:14:45;4.32;;;2.92;;
5014;SDS011;2526;51.060;4.228;2023-06-10T00:17:11;3.40;;;2.60;;
5014;SDS011;2526;51.060;4.228;2023-06-10T00:19:37;7.18;;;3.28;;
5014;SDS011;2526;51.060;4.228;2023-06-10T00:22:06;4.93;;;3.38;;
5014;SDS011;2526;51.060;4.228;2023-06-10T00:24:31;6.90;;;3.58;;
5014;SDS011;2526;51.060;4.228;2023-06-10T00:26:57;4.97;;;3.15;;
5014;SDS011;2526;51.060;4.228;2023-06-10T00:29:22;5.32;;;3.58;;
5014;SDS011;2526;51.060;4.228;2023-06-10T00:31:48;5.60;;;3.55;;
5014;SDS011;2526;51.060;4.228;2023-06-10T00:34:13;6.60;;;3.67;;
5014;SDS011;2526;51.060;4.228;2023-06-10T00:36:39;14.73;;;3.88;;
5014;SDS011;2526;51.060;4.228;2023-06-10T00:39:04;4.85;;;3.83;;
5014;SDS011;2526;51.060;4.228;2023-06-10T00:41:30;4.85;;;4.03;;
5014;SDS011;2526;51.060;4.228;2023-06-10T00:43:56;4.60;;;2.70;;
5014;SDS011;2526;51.060;4.228;2023-06-10T00:46:22;6.47;;;3.92;;
5014;SDS011;2526;51.060;4.228;2023-06-10T00:48:48;5.05;;;3.88;;
5014;SDS011;2526;51.060;4.228;2023-06-10T00:51:15;11.48;;;4.75;;
5014;SDS011;2526;51.060;4.228;2023-06-10T00:53:41;13.20;;;4.43;;
5014;SDS011;2526;51.060;4.228;2023-06-10T00:56:06;5.45;;;4.75;;
5014;SDS011;2526;51.060;4.228;2023-06-10T00:58:32;4.38;;;3.05;;
5014;SDS011;2526;51.060;4.228;2023-06-10T01:00:57;6.88;;;4.68;;
5014;SDS011;2526;51.060;4.228;2023-06-10T01:03:23;4.60;;;3.67;;
5014;SDS011;2526;51.060;4.228;2023-06-10T01:05:53;5.40;;;4.35;;
5014;SDS011;2526;51.060;4.228;2023-06-10T01:08:41;6.18;;;4.03;;
5014;SDS011;2526;51.060;4.228;2023-06-10T01:11:08;3.28;;;2.85;;
5014;SDS011;2526;51.060;4.228;2023-06-10T01:13:37;4.75;;;3.95;;
5014;SDS011;2526;51.060;4.228;2023-06-10T01:16:04;5.43;;;3.75;;
5014;SDS011;2526;51.060;4.228;2023-06-10T01:18:30;5.05;;;4.38;;
5014;SDS011;2526;51.060;4.228;2023-06-10T01:20:56;6.32;;;4.65;;
5014;SDS011;2526;51.060;4.228;2023-06-10T01:23:21;5.45;;;3.85;;
5014;SDS011;2526;51.060;4.228;2023-06-10T01:25:54;5.72;;;4.15;;
5014;SDS011;2526;51.060;4.228;2023-06-10T01:33:18;6.53;;;4.82;;
5014;SDS011;2526;51.060;4.228;2023-06-10T01:35:46;5.68;;;4.35;;
5014;SDS011;2526;51.060;4.228;2023-06-10T01:38:12;6.15;;;5.28;;
5014;SDS011;2526;51.060;4.228;2023-06-10T01:40:39;5.68;;;3.95;;
5014;SDS011;2526;51.060;4.228;2023-06-10T01:43:05;6.50;;;3.60;;
5014;SDS011;2526;51.060;4.228;2023-06-10T01:45:30;8.95;;;4.43;;
5014;SDS011;2526;51.060;4.228;2023-06-10T01:47:56;6.57;;;3.00;;
5014;SDS011;2526;51.060;4.228;2023-06-10T01:50:21;5.95;;;4.05;;
5014;SDS011;2526;51.060;4.228;2023-06-10T01:52:47;5.93;;;3.80;;
5014;SDS011;2526;51.060;4.228;2023-06-10T01:55:12;5.72;;;4.15;;
5014;SDS011;2526;51.060;4.228;2023-06-10T01:57:38;5.13;;;3.92;;
5014;SDS011;2526;51.060;4.228;2023-06-10T02:00:03;5.32;;;3.88;;
5014;SDS011;2526;51.060;4.228;2023-06-10T02:02:29;3.97;;;3.15;;
5014;SDS011;2526;51.060;4.228;2023-06-10T02:04:54;8.02;;;4.75;;
5014;SDS011;2526;51.060;4.228;2023-06-10T02:07:20;3.92;;;3.58;;
5014;SDS011;2526;51.060;4.228;2023-06-10T02:09:45;4.97;;;4.18;;
5014;SDS011;2526;51.060;4.228;2023-06-10T02:12:11;9.30;;;5.35;;
5014;SDS011;2526;51.060;4.228;2023-06-10T02:14:36;4.43;;;3.65;;
5014;SDS011;2526;51.060;4.228;2023-06-10T02:17:02;8.90;;;4.15;;
5014;SDS011;2526;51.060;4.228;2023-06-10T02:19:27;5.43;;;4.90;;
5014;SDS011;2526;51.060;4.228;2023-06-10T02:21:53;9.00;;;4.45;;
5014;SDS011;2526;51.060;4.228;2023-06-10T02:24:19;4.85;;;3.35;;
5014;SDS011;2526;51.060;4.228;2023-06-10T02:26:44;5.13;;;3.42;;
5014;SDS011;2526;51.060;4.228;2023-06-10T02:29:11;6.63;;;4.25;;
5014;SDS011;2526;51.060;4.228;2023-06-10T02:31:37;11.20;;;4.85;;
5014;SDS011;2526;51.060;4.228;2023-06-10T02:34:02;11.43;;;3.85;;
5014;SDS011;2526;51.060;4.228;2023-06-10T02:36:29;5.70;;;4.95;;
5014;SDS011;2526;51.060;4.228;2023-06-10T02:38:54;4.63;;;3.95;;
5014;SDS011;2526;51.060;4.228;2023-06-10T02:41:20;4.63;;;4.22;;
5014;SDS011;2526;51.060;4.228;2023-06-10T02:43:47;6.38;;;4.50;;
5014;SDS011;2526;51.060;4.228;2023-06-10T02:46:12;7.47;;;3.85;;
5014;SDS011;2526;51.060;4.228;2023-06-10T02:48:45;5.95;;;4.05;;
5014;SDS011;2526;51.060;4.228;2023-06-10T02:51:10;6.32;;;4.97;;
5014;SDS011;2526;51.060;4.228;2023-06-10T02:53:36;6.63;;;4.13;;
5014;SDS011;2526;51.060;4.228;2023-06-10T02:56:01;6.65;;;5.57;;
5014;SDS011;2526;51.060;4.228;2023-06-10T02:58:27;7.38;;;4.57;;
5014;SDS011;2526;51.060;4.228;2023-06-10T03:00:52;5.55;;;3.83;;
5014;SDS011;2526;51.060;4.228;2023-06-10T03:03:18;5.35;;;4.45;;
5014;SDS011;2526;51.060;4.228;2023-06-10T03:05:43;7.15;;;5.07;;
5014;SDS011;2526;51.060;4.228;2023-06-10T03:08:09;8.43;;;7.03;;
5014;SDS011;2526;51.060;4.228;2023-06-10T03:10:34;7.38;;;4.78;;
5014;SDS011;2526;51.060;4.228;2023-06-10T03:13:00;8.65;;;5.20;;
5014;SDS011;2526;51.060;4.228;2023-06-10T03:15:25;6.93;;;4.93;;
5014;SDS011;2526;51.060;4.228;2023-06-10T03:17:51;6.72;;;4.53;;
5014;SDS011;2526;51.060;4.228;2023-06-10T03:20:16;6.72;;;5.30;;
5014;SDS011;2526;51.060;4.228;2023-06-10T03:22:42;8.07;;;5.00;;
5014;SDS011;2526;51.060;4.228;2023-06-10T03:25:07;6.30;;;5.30;;
5014;SDS011;2526;51.060;4.228;2023-06-10T03:27:39;5.35;;;4.15;;
5014;SDS011;2526;51.060;4.228;2023-06-10T03:30:04;8.13;;;5.15;;
5014;SDS011;2526;51.060;4.228;2023-06-10T03:32:30;4.32;;;3.92;;
5014;SDS011;2526;51.060;4.228;2023-06-10T03:34:55;7.97;;;5.65;;
5014;SDS011;2526;51.060;4.228;2023-06-10T03:37:22;5.05;;;4.50;;
5014;SDS011;2526;51.060;4.228;2023-06-10T03:39:48;8.65;;;5.10;;
5014;SDS011;2526;51.060;4.228;2023-06-10T03:42:13;6.80;;;5.47;;
5014;SDS011;2526;51.060;4.228;2023-06-10T03:44:39;7.75;;;5.22;;
5014;SDS011;2526;51.060;4.228;2023-06-10T03:47:04;10.07;;;5.35;;
5014;SDS011;2526;51.060;4.228;2023-06-10T03:49:30;8.57;;;5.97;;
5014;SDS011;2526;51.060;4.228;2023-06-10T03:51:55;9.77;;;5.95;;
5014;SDS011;2526;51.060;4.228;2023-06-10T03:54:20;8.10;;;5.78;;
5014;SDS011;2526;51.060;4.228;2023-06-10T03:56:46;6.80;;;4.68;;
5014;SDS011;2526;51.060;4.228;2023-06-10T03:59:13;8.23;;;6.10;;
5014;SDS011;2526;51.060;4.228;2023-06-10T04:01:38;5.55;;;4.68;;
5014;SDS011;2526;51.060;4.228;2023-06-10T04:04:06;7.35;;;4.90;;
5014;SDS011;2526;51.060;4.228;2023-06-10T04:06:31;4.72;;;4.25;;
5014;SDS011;2526;51.060;4.228;2023-06-10T04:08:57;7.68;;;5.63;;
5014;SDS011;2526;51.060;4.228;2023-06-10T04:11:23;6.35;;;5.68;;
5014;SDS011;2526;51.060;4.228;2023-06-10T04:13:49;8.05;;;5.53;;
5014;SDS011;2526;51.060;4.228;2023-06-10T04:16:15;4.97;;;4.50;;
5014;SDS011;2526;51.060;4.228;2023-06-10T04:18:41;6.43;;;5.25;;
5014;SDS011;2526;51.060;4.228;2023-06-10T04:21:07;9.70;;;4.60;;
5014;SDS011;2526;51.060;4.228;2023-06-10T04:23:34;7.85;;;5.65;;
5014;SDS011;2526;51.060;4.228;2023-06-10T04:26:00;5.95;;;4.45;;
5014;SDS011;2526;51.060;4.228;2023-06-10T04:28:25;11.73;;;6.00;;
5014;SDS011;2526;51.060;4.228;2023-06-10T04:30:52;6.60;;;5.32;;
5014;SDS011;2526;51.060;4.228;2023-06-10T04:33:17;10.55;;;5.40;;
5014;SDS011;2526;51.060;4.228;2023-06-10T04:35:42;8.13;;;4.82;;
5014;SDS011;2526;51.060;4.228;2023-06-10T04:38:08;9.30;;;5.05;;
5014;SDS011;2526;51.060;4.228;2023-06-10T04:40:33;5.97;;;4.60;;
5014;SDS011;2526;51.060;4.228;2023-06-10T04:42:59;7.50;;;5.20;;
5014;SDS011;2526;51.060;4.228;2023-06-10T04:45:24;7.60;;;4.65;;
5014;SDS011;2526;51.060;4.228;2023-06-10T04:47:50;6.40;;;4.97;;
5014;SDS011;2526;51.060;4.228;2023-06-10T04:50:15;6.05;;;4.38;;
5014;SDS011;2526;51.060;4.228;2023-06-10T04:52:41;8.48;;;5.55;;
5014;SDS011;2526;51.060;4.228;2023-06-10T04:55:06;9.23;;;4.93;;
5014;SDS011;2526;51.060;4.228;2023-06-10T04:57:32;8.18;;;5.78;;
5014;SDS011;2526;51.060;4.228;2023-06-10T04:59:58;9.38;;;4.88;;
5014;SDS011;2526;51.060;4.228;2023-06-10T05:02:23;6.70;;;4.70;;
5014;SDS011;2526;51.060;4.228;2023-06-10T05:04:48;6.97;;;4.82;;
5014;SDS011;2526;51.060;4.228;2023-06-10T05:07:14;11.55;;;5.35;;
5014;SDS011;2526;51.060;4.228;2023-06-10T05:09:40;5.47;;;4.53;;
5014;SDS011;2526;51.060;4.228;2023-06-10T05:12:05;8.25;;;4.78;;
5014;SDS011;2526;51.060;4.228;2023-06-10T05:14:31;8.10;;;5.03;;
5014;SDS011;2526;51.060;4.228;2023-06-10T05:16:57;7.95;;;5.32;;
5014;SDS011;2526;51.060;4.228;2023-06-10T05:19:22;7.28;;;4.88;;
5014;SDS011;2526;51.060;4.228;2023-06-10T05:21:48;5.20;;;4.68;;
5014;SDS011;2526;51.060;4.228;2023-06-10T05:24:13;6.63;;;4.25;;
5014;SDS011;2526;51.060;4.228;2023-06-10T05:26:39;9.32;;;5.20;;
5014;SDS011;2526;51.060;4.228;2023-06-10T05:29:05;21.15;;;7.07;;
5014;SDS011;2526;51.060;4.228;2023-06-10T05:31:30;6.53;;;4.00;;
5014;SDS011;2526;51.060;4.228;2023-06-10T05:33:57;6.93;;;5.22;;
5014;SDS011;2526;51.060;4.228;2023-06-10T05:36:22;7.60;;;6.53;;
5014;SDS011;2526;51.060;4.228;2023-06-10T05:38:50;6.75;;;5.20;;
5014;SDS011;2526;51.060;4.228;2023-06-10T05:41:15;6.38;;;4.65;;
5014;SDS011;2526;51.060;4.228;2023-06-10T05:43:41;13.07;;;5.75;;
5014;SDS011;2526;51.060;4.228;2023-06-10T05:46:06;9.90;;;5.13;;
5014;SDS011;2526;51.060;4.228;2023-06-10T05:48:32;11.85;;;5.18;;
5014;SDS011;2526;51.060;4.228;2023-06-10T05:50:57;7.13;;;5.45;;
5014;SDS011;2526;51.060;4.228;2023-06-10T05:53:23;5.50;;;4.85;;
5014;SDS011;2526;51.060;4.228;2023-06-10T05:55:48;7.35;;;5.45;;
5014;SDS011;2526;51.060;4.228;2023-06-10T05:58:14;7.88;;;6.53;;
5014;SDS011;2526;51.060;4.228;2023-06-10T06:00:39;8.95;;;5.38;;
5014;SDS011;2526;51.060;4.228;2023-06-10T06:03:08;6.03;;;3.80;;
5014;SDS011;2526;51.060;4.228;2023-06-10T06:05:34;10.60;;;4.95;;
5014;SDS011;2526;51.060;4.228;2023-06-10T06:08:01;8.10;;;5.47;;
5014;SDS011;2526;51.060;4.228;2023-06-10T06:10:26;5.45;;;4.70;;
5014;SDS011;2526;51.060;4.228;2023-06-10T06:12:52;7.80;;;5.50;;
5014;SDS011;2526;51.060;4.228;2023-06-10T06:15:17;7.22;;;5.95;;
5014;SDS011;2526;51.060;4.228;2023-06-10T06:17:43;8.93;;;4.78;;
5014;SDS011;2526;51.060;4.228;2023-06-10T06:20:08;6.30;;;5.70;;
5014;SDS011;2526;51.060;4.228;2023-06-10T06:22:34;9.48;;;6.35;;
5014;SDS011;2526;51.060;4.228;2023-06-10T06:24:59;6.40;;;5.00;;
5014;SDS011;2526;51.060;4.228;2023-06-10T06:27:25;6.00;;;4.93;;
5014;SDS011;2526;51.060;4.228;2023-06-10T06:29:50;5.88;;;4.45;;
5014;SDS011;2526;51.060;4.228;2023-06-10T06:32:16;4.55;;;4.05;;
5014;SDS011;2526;51.060;4.228;2023-06-10T06:34:41;9.35;;;6.68;;
5014;SDS011;2526;51.060;4.228;2023-06-10T06:37:07;5.07;;;4.55;;
5014;SDS011;2526;51.060;4.228;2023-06-10T06:39:32;11.32;;;5.47;;
5014;SDS011;2526;51.060;4.228;2023-06-10T06:41:58;8.00;;;5.25;;
5014;SDS011;2526;51.060;4.228;2023-06-10T06:44:23;7.28;;;6.35;;
5014;SDS011;2526;51.060;4.228;2023-06-10T06:46:49;5.75;;;3.67;;
5014;SDS011;2526;51.060;4.228;2023-06-10T06:49:14;6.10;;;3.55;;
5014;SDS011;2526;51.060;4.228;2023-06-10T06:51:40;8.68;;;3.90;;
5014;SDS011;2526;51.060;4.228;2023-06-10T06:54:05;10.45;;;4.72;;
5014;SDS011;2526;51.060;4.228;2023-06-10T06:56:31;4.88;;;4.13;;
5014;SDS011;2526;51.060;4.228;2023-06-10T06:58:56;7.70;;;3.95;;
5014;SDS011;2526;51.060;4.228;2023-06-10T07:01:22;6.88;;;4.85;;
5014;SDS011;2526;51.060;4.228;2023-06-10T07:03:47;12.45;;;5.07;;
5014;SDS011;2526;51.060;4.228;2023-06-10T07:06:13;5.70;;;5.05;;
5014;SDS011;2526;51.060;4.228;2023-06-10T07:08:38;5.85;;;4.25;;
5014;SDS011;2526;51.060;4.228;2023-06-10T07:11:04;10.93;;;4.13;;
5014;SDS011;2526;51.060;4.228;2023-06-10T07:13:29;5.57;;;3.72;;
5014;SDS011;2526;51.060;4.228;2023-06-10T07:15:55;7.80;;;4.25;;
5014;SDS011;2526;51.060;4.228;2023-06-10T07:18:20;6.85;;;4.03;;
5014;SDS011;2526;51.060;4.228;2023-06-10T07:20:46;7.65;;;4.78;;
5014;SDS011;2526;51.060;4.228;2023-06-10T07:23:11;5.30;;;4.60;;
5014;SDS011;2526;51.060;4.228;2023-06-10T07:25:37;7.47;;;4.45;;
5014;SDS011;2526;51.060;4.228;2023-06-10T07:28:02;3.75;;;2.78;;
5014;SDS011;2526;51.060;4.228;2023-06-10T07:30:28;4.03;;;3.55;;
5014;SDS011;2526;51.060;4.228;2023-06-10T07:32:53;5.35;;;4.28;;
5014;SDS011;2526;51.060;4.228;2023-06-10T07:35:19;4.82;;;4.15;;
5014;SDS011;2526;51.060;4.228;2023-06-10T07:37:44;6.00;;;5.13;;
5014;SDS011;2526;51.060;4.228;2023-06-10T07:40:10;4.55;;;3.85;;
5014;SDS011;2526;51.060;4.228;2023-06-10T07:42:36;5.90;;;4.25;;
5014;SDS011;2526;51.060;4.228;2023-06-10T07:45:05;7.10;;;4.95;;
5014;SDS011;2526;51.060;4.228;2023-06-10T07:47:30;5.45;;;4.10;;
5014;SDS011;2526;51.060;4.228;2023-06-10T07:49:56;5.80;;;3.92;;
5014;SDS011;2526;51.060;4.228;2023-06-10T07:52:21;5.22;;;4.18;;
5014;SDS011;2526;51.060;4.228;2023-06-10T07:54:47;5.35;;;4.05;;
5014;SDS011;2526;51.060;4.228;2023-06-10T07:57:12;5.22;;;3.38;;
5014;SDS011;2526;51.060;4.228;2023-06-10T07:59:38;3.20;;;2.85;;
5014;SDS011;2526;51.060;4.228;2023-06-10T08:02:04;5.30;;;3.72;;
5014;SDS011;2526;51.060;4.228;2023-06-10T08:04:29;5.13;;;3.55;;
5014;SDS011;2526;51.060;4.228;2023-06-10T08:06:56;4.63;;;3.53;;
5014;SDS011;2526;51.060;4.228;2023-06-10T08:09:21;5.03;;;3.78;;
5014;SDS011;2526;51.060;4.228;2023-06-10T08:11:48;8.20;;;4.18;;
5014;SDS011;2526;51.060;4.228;2023-06-10T08:14:13;11.18;;;4.43;;
5014;SDS011;2526;51.060;4.228;2023-06-10T08:16:39;5.13;;;2.97;;
5014;SDS011;2526;51.060;4.228;2023-06-10T08:19:04;7.60;;;3.55;;
5014;SDS011;2526;51.060;4.228;2023-06-10T08:21:30;4.85;;;4.10;;
5014;SDS011;2526;51.060;4.228;2023-06-10T08:23:55;5.07;;;3.50;;
5014;SDS011;2526;51.060;4.228;2023-06-10T08:26:21;2.78;;;2.58;;
5014;SDS011;2526;51.060;4.228;2023-06-10T08:28:46;6.85;;;3.28;;
5014;SDS011;2526;51.060;4.228;2023-06-10T08:31:12;4.45;;;3.58;;
5014;SDS011;2526;51.060;4.228;2023-06-10T08:33:37;4.40;;;3.38;;
5014;SDS011;2526;51.060;4.228;2023-06-10T08:36:02;15.63;;;4.85;;
5014;SDS011;2526;51.060;4.228;2023-06-10T08:38:28;7.03;;;3.92;;
5014;SDS011;2526;51.060;4.228;2023-06-10T08:40:56;4.45;;;3.08;;
5014;SDS011;2526;51.060;4.228;2023-06-10T08:43:37;4.85;;;3.28;;
5014;SDS011;2526;51.060;4.228;2023-06-10T08:46:03;9.93;;;3.88;;
5014;SDS011;2526;51.060;4.228;2023-06-10T08:48:29;5.13;;;3.45;;
5014;SDS011;2526;51.060;4.228;2023-06-10T08:50:56;5.00;;;3.63;;
5014;SDS011;2526;51.060;4.228;2023-06-10T08:53:22;4.25;;;3.47;;
5014;SDS011;2526;51.060;4.228;2023-06-10T08:55:50;3.45;;;2.78;;
5014;SDS011;2526;51.060;4.228;2023-06-10T08:58:17;2.85;;;2.47;;
5014;SDS011;2526;51.060;4.228;2023-06-10T09:00:42;4.50;;;3.38;;
5014;SDS011;2526;51.060;4.228;2023-06-10T09:03:08;8.02;;;3.40;;
5014;SDS011;2526;51.060;4.228;2023-06-10T09:05:34;3.47;;;3.17;;
5014;SDS011;2526;51.060;4.228;2023-06-10T09:08:00;4.18;;;3.17;;
5014;SDS011;2526;51.060;4.228;2023-06-10T09:10:26;5.45;;;3.08;;
5014;SDS011;2526;51.060;4.228;2023-06-10T09:12:52;5.93;;;2.67;;
5014;SDS011;2526;51.060;4.228;2023-06-10T09:15:17;4.82;;;2.70;;
5014;SDS011;2526;51.060;4.228;2023-06-10T09:17:43;7.38;;;2.58;;
5014;SDS011;2526;51.060;4.228;2023-06-10T09:20:08;4.28;;;2.67;;
5014;SDS011;2526;51.060;4.228;2023-06-10T09:22:34;3.15;;;2.70;;
5014;SDS011;2526;51.060;4.228;2023-06-10T09:25:03;4.47;;;3.20;;
5014;SDS011;2526;51.060;4.228;2023-06-10T09:27:30;2.92;;;2.50;;
5014;SDS011;2526;51.060;4.228;2023-06-10T09:29:59;3.72;;;2.70;;
5014;SDS011;2526;51.060;4.228;2023-06-10T09:32:25;3.15;;;2.58;;
5014;SDS011;2526;51.060;4.228;2023-06-10T09:34:51;3.22;;;2.35;;
5014;SDS011;2526;51.060;4.228;2023-06-10T09:37:20;3.97;;;2.70;;
5014;SDS011;2526;51.060;4.228;2023-06-10T09:40:00;7.43;;;2.70;;
5014;SDS011;2526;51.060;4.228;2023-06-10T09:42:25;2.90;;;2.42;;
5014;SDS011;2526;51.060;4.228;2023-06-10T09:44:51;4.47;;;2.50;;
5014;SDS011;2526;51.060;4.228;2023-06-10T09:47:22;3.25;;;2.95;;
5014;SDS011;2526;51.060;4.228;2023-06-10T09:49:48;3.95;;;2.78;;
5014;SDS011;2526;51.060;4.228;2023-06-10T09:52:14;7.05;;;3.67;;
5014;SDS011;2526;51.060;4.228;2023-06-10T09:54:46;3.42;;;2.45;;
5014;SDS011;2526;51.060;4.228;2023-06-10T09:57:11;4.97;;;2.38;;
5014;SDS011;2526;51.060;4.228;2023-06-10T09:59:37;2.65;;;2.40;;
5014;SDS011;2526;51.060;4.228;2023-06-10T10:02:03;5.38;;;3.10;;
5014;SDS011;2526;51.060;4.228;2023-06-10T10:04:29;3.30;;;2.42;;
5014;SDS011;2526;51.060;4.228;2023-06-10T10:06:55;3.25;;;2.78;;
5014;SDS011;2526;51.060;4.228;2023-06-10T10:09:20;4.70;;;2.80;;
5014;SDS011;2526;51.060;4.228;2023-06-10T10:11:46;3.78;;;2.35;;
5014;SDS011;2526;51.060;4.228;2023-06-10T10:14:12;4.60;;;2.88;;
5014;SDS011;2526;51.060;4.228;2023-06-10T10:16:40;5.60;;;3.33;;
5014;SDS011;2526;51.060;4.228;2023-06-10T10:19:10;3.78;;;3.47;;
5014;SDS011;2526;51.060;4.228;2023-06-10T10:21:43;5.03;;;2.90;;
5014;SDS011;2526;51.060;4.228;2023-06-10T10:24:14;3.65;;;2.67;;
5014;SDS011;2526;51.060;4.228;2023-06-10T10:26:41;4.57;;;3.60;;
5014;SDS011;2526;51.060;4.228;2023-06-10T10:29:10;3.50;;;3.20;;
5014;SDS011;2526;51.060;4.228;2023-06-10T10:31:36;3.40;;;2.63;;
5014;SDS011;2526;51.060;4.228;2023-06-10T10:34:04;6.22;;;3.17;;
5014;SDS011;2526;51.060;4.228;2023-06-10T10:36:31;5.95;;;3.20;;
5014;SDS011;2526;51.060;4.228;2023-06-10T10:38:57;6.57;;;2.90;;
5014;SDS011;2526;51.060;4.228;2023-06-10T10:41:24;6.28;;;3.15;;
5014;SDS011;2526;51.060;4.228;2023-06-10T10:43:51;4.88;;;2.92;;
5014;SDS011;2526;51.060;4.228;2023-06-10T10:46:17;5.10;;;3.30;;
5014;SDS011;2526;51.060;4.228;2023-06-10T10:48:43;5.55;;;3.53;;
5014;SDS011;2526;51.060;4.228;2023-06-10T10:51:09;3.58;;;2.58;;
5014;SDS011;2526;51.060;4.228;2023-06-10T10:53:38;6.75;;;2.92;;
5014;SDS011;2526;51.060;4.228;2023-06-10T10:56:07;4.57;;;3.53;;
5014;SDS011;2526;51.060;4.228;2023-06-10T10:58:33;4.75;;;3.05;;
5014;SDS011;2526;51.060;4.228;2023-06-10T11:00:59;6.80;;;3.67;;
5014;SDS011;2526;51.060;4.228;2023-06-10T11:03:29;3.65;;;2.75;;
5014;SDS011;2526;51.060;4.228;2023-06-10T11:05:57;3.28;;;2.97;;
5014;SDS011;2526;51.060;4.228;2023-06-10T11:10:51;7.68;;;2.95;;
5014;SDS011;2526;51.060;4.228;2023-06-10T11:13:20;3.45;;;2.22;;
5014;SDS011;2526;51.060;4.228;2023-06-10T11:15:47;4.60;;;2.20;;
5014;SDS011;2526;51.060;4.228;2023-06-10T11:18:26;7.00;;;3.97;;
5014;SDS011;2526;51.060;4.228;2023-06-10T11:20:52;5.63;;;3.45;;
5014;SDS011;2526;51.060;4.228;2023-06-10T11:23:29;4.45;;;3.08;;
5014;SDS011;2526;51.060;4.228;2023-06-10T11:29:02;5.47;;;3.55;;
5014;SDS011;2526;51.060;4.228;2023-06-10T11:31:30;6.82;;;3.45;;
5014;SDS011;2526;51.060;4.228;2023-06-10T11:33:57;11.10;;;4.10;;
5014;SDS011;2526;51.060;4.228;2023-06-10T11:36:23;3.60;;;3.28;;
5014;SDS011;2526;51.060;4.228;2023-06-10T11:38:49;4.55;;;3.58;;
5014;SDS011;2526;51.060;4.228;2023-06-10T11:41:15;5.38;;;3.50;;
5014;SDS011;2526;51.060;4.228;2023-06-10T11:43:42;4.78;;;2.75;;
5014;SDS011;2526;51.060;4.228;2023-06-10T11:46:08;5.20;;;2.88;;
5014;SDS011;2526;51.060;4.228;2023-06-10T11:48:33;4.55;;;3.75;;
5014;SDS011;2526;51.060;4.228;2023-06-10T11:51:00;5.78;;;3.03;;
5014;SDS011;2526;51.060;4.228;2023-06-10T11:53:26;10.65;;;3.58;;
5014;SDS011;2526;51.060;4.228;2023-06-10T11:55:53;6.10;;;4.10;;
5014;SDS011;2526;51.060;4.228;2023-06-10T11:58:20;5.93;;;3.40;;
5014;SDS011;2526;51.060;4.228;2023-06-10T12:00:46;3.58;;;2.83;;
5014;SDS011;2526;51.060;4.228;2023-06-10T12:03:12;6.35;;;3.75;;
5014;SDS011;2526;51.060;4.228;2023-06-10T12:05:38;3.75;;;3.03;;
5014;SDS011;2526;51.060;4.228;2023-06-10T12:08:10;7.32;;;3.25;;
5014;SDS011;2526;51.060;4.228;2023-06-10T12:10:40;3.08;;;2.72;;
5014;SDS011;2526;51.060;4.228;2023-06-10T12:13:06;9.45;;;3.25;;
5014;SDS011;2526;51.060;4.228;2023-06-10T12:15:31;3.47;;;2.97;;
5014;SDS011;2526;51.060;4.228;2023-06-10T12:17:57;4.22;;;2.58;;
5014;SDS011;2526;51.060;4.228;2023-06-10T12:20:26;5.85;;;2.80;;
5014;SDS011;2526;51.060;4.228;2023-06-10T12:22:53;5.50;;;3.03;;
5014;SDS011;2526;51.060;4.228;2023-06-10T12:25:23;3.03;;;2.38;;
5014;SDS011;2526;51.060;4.228;2023-06-10T12:27:50;3.33;;;2.75;;
5014;SDS011;2526;51.060;4.228;2023-06-10T12:30:18;7.65;;;4.57;;
5014;SDS011;2526;51.060;4.228;2023-06-10T12:32:45;4.72;;;3.30;;
5014;SDS011;2526;51.060;4.228;2023-06-10T12:35:11;3.22;;;2.83;;
5014;SDS011;2526;51.060;4.228;2023-06-10T12:37:40;5.05;;;3.33;;
5014;SDS011;2526;51.060;4.228;2023-06-10T12:40:05;6.55;;;3.70;;
5014;SDS011;2526;51.060;4.228;2023-06-10T12:42:31;4.03;;;2.50;;
5014;SDS011;2526;51.060;4.228;2023-06-10T12:44:59;3.45;;;2.67;;
5014;SDS011;2526;51.060;4.228;2023-06-10T12:47:31;3.95;;;2.45;;
5014;SDS011;2526;51.060;4.228;2023-06-10T12:49:58;2.65;;;2.40;;
5014;SDS011;2526;51.060;4.228;2023-06-10T12:52:24;3.25;;;2.90;;
5014;SDS011;2526;51.060;4.228;2023-06-10T12:54:49;7.07;;;2.72;;
5014;SDS011;2526;51.060;4.228;2023-06-10T12:57:15;4.30;;;3.08;;
5014;SDS011;2526;51.060;4.228;2023-06-10T12:59:40;8.15;;;3.22;;
5014;SDS011;2526;51.060;4.228;2023-06-10T13:02:07;3.38;;;2.72;;
5014;SDS011;2526;51.060;4.228;2023-06-10T13:04:33;4.18;;;2.92;;
5014;SDS011;2526;51.060;4.228;2023-06-10T13:06:58;13.38;;;3.40;;
5014;SDS011;2526;51.060;4.228;2023-06-10T13:09:24;4.55;;;2.97;;
5014;SDS011;2526;51.060;4.228;2023-06-10T13:11:49;4.97;;;3.10;;
5014;SDS011;2526;51.060;4.228;2023-06-10T13:14:15;2.72;;;2.53;;
5014;SDS011;2526;51.060;4.228;2023-06-10T13:16:40;6.43;;;3.35;;
5014;SDS011;2526;51.060;4.228;2023-06-10T13:19:06;5.55;;;3.00;;
5014;SDS011;2526;51.060;4.228;2023-06-10T13:21:32;7.82;;;2.80;;
5014;SDS011;2526;51.060;4.228;2023-06-10T13:23:58;5.03;;;3.33;;
5014;SDS011;2526;51.060;4.228;2023-06-10T13:26:23;4.60;;;2.92;;
5014;SDS011;2526;51.060;4.228;2023-06-10T13:28:49;3.42;;;2.97;;
5014;SDS011;2526;51.060;4.228;2023-06-10T13:31:14;5.35;;;2.53;;
5014;SDS011;2526;51.060;4.228;2023-06-10T13:33:40;3.92;;;2.80;;
5014;SDS011;2526;51.060;4.228;2023-06-10T13:36:05;8.38;;;4.15;;
5014;SDS011;2526;51.060;4.228;2023-06-10T13:38:31;4.47;;;3.08;;
5014;SDS011;2526;51.060;4.228;2023-06-10T13:40:56;4.10;;;3.10;;
5014;SDS011;2526;51.060;4.228;2023-06-10T13:43:22;3.90;;;3.10;;
5014;SDS011;2526;51.060;4.228;2023-06-10T13:45:47;6.18;;;3.72;;
5014;SDS011;2526;51.060;4.228;2023-06-10T13:48:13;4.38;;;2.88;;
5014;SDS011;2526;51.060;4.228;2023-06-10T13:50:38;5.32;;;3.17;;
5014;SDS011;2526;51.060;4.228;2023-06-10T13:53:03;7.55;;;3.22;;
5014;SDS011;2526;51.060;4.228;2023-06-10T13:55:29;7.80;;;3.15;;
5014;SDS011;2526;51.060;4.228;2023-06-10T13:57:54;4.75;;;3.08;;
5014;SDS011;2526;51.060;4.228;2023-06-10T14:00:20;3.90;;;2.63;;
5014;SDS011;2526;51.060;4.228;2023-06-10T14:02:46;9.15;;;3.72;;
5014;SDS011;2526;51.060;4.228;2023-06-10T14:05:11;4.32;;;3.20;;
5014;SDS011;2526;51.060;4.228;2023-06-10T14:07:37;4.65;;;2.97;;
5014;SDS011;2526;51.060;4.228;2023-06-10T14:10:03;5.53;;;3.63;;
5014;SDS011;2526;51.060;4.228;2023-06-10T14:12:28;4.10;;;3.00;;
5014;SDS011;2526;51.060;4.228;2023-06-10T14:14:54;6.22;;;3.40;;
5014;SDS011;2526;51.060;4.228;2023-06-10T14:17:19;5.05;;;3.10;;
5014;SDS011;2526;51.060;4.228;2023-06-10T14:19:44;4.88;;;2.80;;
5014;SDS011;2526;51.060;4.228;2023-06-10T14:22:10;7.75;;;3.53;;
5014;SDS011;2526;51.060;4.228;2023-06-10T14:24:35;3.38;;;2.63;;
5014;SDS011;2526;51.060;4.228;2023-06-10T14:27:04;2.85;;;2.60;;
5014;SDS011;2526;51.060;4.228;2023-06-10T14:29:29;4.65;;;2.80;;
5014;SDS011;2526;51.060;4.228;2023-06-10T14:31:56;4.90;;;3.22;;
5014;SDS011;2526;51.060;4.228;2023-06-10T14:34:22;3.95;;;2.33;;
5014;SDS011;2526;51.060;4.228;2023-06-10T14:36:48;4.88;;;2.72;;
5014;SDS011;2526;51.060;4.228;2023-06-10T14:39:14;5.00;;;3.28;;
5014;SDS011;2526;51.060;4.228;2023-06-10T14:41:39;7.32;;;2.85;;
5014;SDS011;2526;51.060;4.228;2023-06-10T14:44:05;3.88;;;2.85;;
5014;SDS011;2526;51.060;4.228;2023-06-10T14:46:30;5.22;;;3.20;;
5014;SDS011;2526;51.060;4.228;2023-06-10T14:48:55;4.32;;;3.22;;
5014;SDS011;2526;51.060;4.228;2023-06-10T14:51:21;5.00;;;3.45;;
5014;SDS011;2526;51.060;4.228;2023-06-10T14:53:46;4.93;;;2.97;;
5014;SDS011;2526;51.060;4.228;2023-06-10T14:56:12;4.05;;;3.10;;
5014;SDS011;2526;51.060;4.228;2023-06-10T14:58:37;4.03;;;3.10;;
5014;SDS011;2526;51.060;4.228;2023-06-10T15:01:03;4.35;;;2.75;;
5014;SDS011;2526;51.060;4.228;2023-06-10T15:03:29;5.38;;;3.92;;
5014;SDS011;2526;51.060;4.228;2023-06-10T15:05:54;3.70;;;3.00;;
5014;SDS011;2526;51.060;4.228;2023-06-10T15:08:20;4.95;;;3.58;;
5014;SDS011;2526;51.060;4.228;2023-06-10T15:10:45;3.72;;;2.25;;
5014;SDS011;2526;51.060;4.228;2023-06-10T15:13:13;6.90;;;3.50;;
5014;SDS011;2526;51.060;4.228;2023-06-10T15:15:38;5.55;;;3.88;;
5014;SDS011;2526;51.060;4.228;2023-06-10T15:18:04;4.53;;;2.92;;